Time;durP1;ratioP1;P1;durP2;ratioP2;P2;SDS_P1;SDS_P2;PMS_P1;PMS_P2;Temp;Humidity;BMP_temperature;BMP_pressure;BME280_temperature;BME280_humidity;BME280_pressure;Samples;Min_cycle;Max_cycle;Signal;HPM_P1;HPM_P2
2023/07/05 00:01:28;;;;;;;14.82;8.75;;;;;;;21.39;72.06;93893.09;5064663;28;20013;-72
2023/07/05 00:03:53;;;;;;;16.88;8.73;;;;;;;21.34;71.87;93896.97;5064662;28;20035;-72
2023/07/05 00:06:19;;;;;;;12.20;8.70;;;;;;;21.30;71.69;93906.25;5064494;28;20036;-73
2023/07/05 00:08:44;;;;;;;16.40;8.07;;;;;;;21.32;71.31;93898.50;5064458;28;20033;-72
2023/07/05 00:11:11;;;;;;;11.82;8.77;;;;;;;21.26;71.54;93900.78;5064741;28;20025;-72
2023/07/05 00:13:36;;;;;;;12.85;8.38;;;;;;;21.26;71.33;93895.38;5064306;28;20074;-72
2023/07/05 00:16:03;;;;;;;12.68;8.55;;;;;;;21.31;70.75;93886.88;5064334;28;20235;-71
2023/07/05 00:18:28;;;;;;;14.32;8.13;;;;;;;21.33;70.54;93886.50;5064111;28;20017;-72
2023/07/05 00:21:02;;;;;;;16.92;8.73;;;;;;;21.31;70.70;93886.88;5064688;28;20025;-73
2023/07/05 00:23:29;;;;;;;15.23;8.73;;;;;;;21.35;70.54;93895.03;5064474;28;20230;-72
2023/07/05 00:25:55;;;;;;;20.00;10.90;;;;;;;21.31;70.76;93889.59;5064545;28;20335;-74
2023/07/05 00:28:20;;;;;;;24.10;9.30;;;;;;;21.32;71.68;93885.72;5064279;28;20044;-73
2023/07/05 00:30:46;;;;;;;17.85;9.63;;;;;;;21.29;71.15;93894.63;5064373;28;20024;-73
2023/07/05 00:33:11;;;;;;;12.38;8.05;;;;;;;21.15;71.48;93891.84;5063855;28;20024;-73
2023/07/05 00:35:43;;;;;;;14.73;9.07;;;;;;;21.00;72.04;93904.53;5064098;28;20044;-73
2023/07/05 00:38:09;;;;;;;15.27;8.30;;;;;;;20.90;72.31;93908.72;5064232;28;20071;-73
2023/07/05 00:40:34;;;;;;;20.42;8.85;;;;;;;20.79;72.92;93910.59;5063943;28;20021;-71
2023/07/05 00:43:00;;;;;;;14.38;9.05;;;;;;;20.71;73.73;93919.81;5063774;28;20342;-73
2023/07/05 00:45:50;;;;;;;14.35;9.77;;;;;;;20.60;75.18;93920.50;5063705;28;20029;-71
2023/07/05 00:48:19;;;;;;;16.13;9.88;;;;;;;20.51;75.66;93930.06;5063684;28;20079;-72
2023/07/05 00:50:49;;;;;;;13.73;9.82;;;;;;;20.46;76.30;93933.91;5063477;28;20032;-72
2023/07/05 00:53:15;;;;;;;18.33;9.35;;;;;;;20.38;76.87;93929.59;5063388;28;20321;-72
2023/07/05 00:55:46;;;;;;;16.35;9.52;;;;;;;20.33;77.95;93927.19;5063502;28;20040;-73
2023/07/05 00:58:12;;;;;;;14.48;9.35;;;;;;;20.35;78.58;93933.81;5063528;28;20318;-73
2023/07/05 01:00:38;;;;;;;16.52;9.90;;;;;;;20.38;79.44;93918.75;5063621;28;20048;-73
2023/07/05 01:03:10;;;;;;;15.40;10.75;;;;;;;20.40;79.68;93911.81;5063456;28;20108;-72
2023/07/05 01:05:36;;;;;;;16.42;10.20;;;;;;;20.36;81.14;93915.66;5062411;28;20095;-72
2023/07/05 01:08:04;;;;;;;24.63;11.25;;;;;;;20.34;81.60;93902.47;5063334;28;20024;-73
2023/07/05 01:10:30;;;;;;;17.10;11.65;;;;;;;20.29;82.19;93904.75;5063299;28;20025;-72
2023/07/05 01:13:09;;;;;;;14.93;10.65;;;;;;;20.31;82.72;93907.84;5063384;28;20897;-72
2023/07/05 01:15:43;;;;;;;19.60;11.30;;;;;;;20.32;82.41;93907.50;5062208;28;20049;-72
2023/07/05 01:18:21;;;;;;;16.67;11.35;;;;;;;20.27;82.59;93901.63;5063191;28;20070;-72
2023/07/05 01:21:00;;;;;;;15.68;9.77;;;;;;;20.23;82.65;93894.28;5063304;28;20024;-72
2023/07/05 01:24:12;;;;;;;21.05;10.18;;;;;;;20.21;82.44;93893.06;5063069;28;20047;-72
2023/07/05 01:27:18;;;;;;;17.10;11.32;;;;;;;20.21;82.71;93885.75;5062012;28;20032;-73
2023/07/05 01:30:04;;;;;;;15.45;10.80;;;;;;;20.30;82.14;93890.84;5061522;28;20032;-73
2023/07/05 01:33:07;;;;;;;14.48;9.73;;;;;;;20.32;81.98;93891.25;5062665;28;20282;-72
2023/07/05 01:35:39;;;;;;;14.40;10.95;;;;;;;20.37;81.79;93887.41;5062766;28;20095;-72
2023/07/05 01:38:06;;;;;;;16.33;10.15;;;;;;;20.40;81.78;93886.69;5062867;28;20048;-72
2023/07/05 01:40:31;;;;;;;19.52;10.23;;;;;;;20.46;81.48;93876.28;5062928;28;20020;-72
2023/07/05 01:43:01;;;;;;;14.60;10.23;;;;;;;20.52;81.46;93878.25;5062742;28;20028;-72
2023/07/05 01:45:41;;;;;;;16.75;9.88;;;;;;;20.63;80.77;93876.41;5062476;28;20033;-72
2023/07/05 01:48:19;;;;;;;22.33;9.52;;;;;;;20.64;80.80;93874.50;5062700;28;20032;-72
2023/07/05 01:50:59;;;;;;;13.68;10.38;;;;;;;20.62;80.34;93874.88;5062276;28;20021;-72
2023/07/05 01:53:33;;;;;;;19.25;10.60;;;;;;;20.56;79.89;93876.34;5062711;28;20079;-72
2023/07/05 01:56:05;;;;;;;14.65;9.80;;;;;;;20.51;79.90;93871.28;5062414;28;20404;-72
2023/07/05 01:58:37;;;;;;;19.20;10.50;;;;;;;20.44;80.39;93874.72;5062594;28;20021;-72
2023/07/05 02:01:06;;;;;;;16.15;10.45;;;;;;;20.48;80.20;93872.03;5062673;28;20021;-72
2023/07/05 02:03:33;;;;;;;15.23;9.73;;;;;;;20.44;80.06;93882.06;5062518;28;20254;-72
2023/07/05 02:05:59;;;;;;;20.30;10.88;;;;;;;20.50;80.03;93880.56;5061816;28;20024;-72
2023/07/05 02:08:27;;;;;;;15.52;10.02;;;;;;;20.52;79.35;93875.56;5062536;28;20257;-72
2023/07/05 02:10:53;;;;;;;13.45;9.65;;;;;;;20.49;79.21;93873.59;5062581;28;20021;-72
2023/07/05 02:13:19;;;;;;;14.15;9.88;;;;;;;20.46;79.38;93870.88;5062312;28;20273;-72
2023/07/05 02:15:48;;;;;;;12.40;9.23;;;;;;;20.35;79.63;93868.06;5062265;28;20025;-72
2023/07/05 02:18:15;;;;;;;17.60;10.38;;;;;;;20.23;80.17;93864.50;5062282;28;20025;-72
2023/07/05 02:20:41;;;;;;;15.50;10.90;;;;;;;20.24;80.20;93868.75;5062198;28;20025;-72
2023/07/05 02:23:07;;;;;;;16.02;10.07;;;;;;;20.29;79.92;93870.31;5062393;28;20266;-72
2023/07/05 02:25:33;;;;;;;14.80;10.10;;;;;;;20.19;80.23;93863.69;5062264;28;20029;-72
2023/07/05 02:27:58;;;;;;;17.05;10.75;;;;;;;20.11;80.43;93855.88;5062415;28;20044;-73
2023/07/05 02:30:26;;;;;;;12.90;10.10;;;;;;;20.10;80.71;93859.75;5062372;28;20123;-72
2023/07/05 02:32:51;;;;;;;17.30;10.32;;;;;;;20.07;80.77;93846.94;5062280;28;20259;-72
2023/07/05 02:35:17;;;;;;;15.70;9.57;;;;;;;20.11;80.28;93856.66;5062173;28;20035;-72
2023/07/05 02:37:42;;;;;;;20.67;10.85;;;;;;;19.99;80.54;93855.00;5060963;28;20214;-72
2023/07/05 02:40:08;;;;;;;15.80;10.25;;;;;;;19.98;80.78;93866.97;5062215;28;20022;-72
2023/07/05 02:42:33;;;;;;;23.73;11.23;;;;;;;19.94;80.92;93866.16;5062212;28;20071;-72
2023/07/05 02:44:59;;;;;;;17.50;10.90;;;;;;;19.97;80.42;93867.38;5062189;28;20032;-72
2023/07/05 02:47:25;;;;;;;21.48;10.65;;;;;;;19.94;80.50;93863.47;5062228;28;20033;-72
2023/07/05 02:49:50;;;;;;;20.58;11.55;;;;;;;19.96;80.61;93860.38;5062083;28;20100;-72
2023/07/05 02:52:16;;;;;;;19.27;10.68;;;;;;;19.95;80.49;93856.13;5060633;28;20056;-72
2023/07/05 02:54:42;;;;;;;18.42;10.88;;;;;;;19.94;80.63;93854.56;5062224;28;20032;-72
2023/07/05 02:57:07;;;;;;;15.10;10.13;;;;;;;19.97;80.24;93851.91;5061961;28;20032;-72
2023/07/05 02:59:33;;;;;;;15.70;10.15;;;;;;;19.94;79.74;93852.63;5060902;28;20037;-72
2023/07/05 03:01:58;;;;;;;18.00;10.10;;;;;;;19.87;79.71;93851.81;5062120;28;20093;-72
2023/07/05 03:04:25;;;;;;;19.48;10.32;;;;;;;19.88;79.65;93847.94;5061709;28;20131;-72
2023/07/05 03:06:51;;;;;;;16.95;9.95;;;;;;;19.88;79.47;93853.34;5061887;28;20048;-72
2023/07/05 03:09:18;;;;;;;17.88;10.75;;;;;;;19.80;79.46;93842.47;5062044;28;20262;-72
2023/07/05 03:11:43;;;;;;;15.90;10.05;;;;;;;19.79;79.67;93837.44;5061936;28;20060;-72
2023/07/05 03:14:09;;;;;;;22.17;13.10;;;;;;;19.76;79.85;93824.66;5061865;28;20287;-72
2023/07/05 03:16:34;;;;;;;13.98;9.93;;;;;;;19.78;79.89;93828.56;5061811;28;20029;-72
2023/07/05 03:18:59;;;;;;;15.77;9.55;;;;;;;19.79;80.07;93829.31;5064033;28;20322;-72
2023/07/05 03:21:25;;;;;;;19.45;11.20;;;;;;;19.79;80.22;93830.09;5065647;28;20096;-72
2023/07/05 03:23:50;;;;;;;19.95;10.30;;;;;;;19.88;79.79;93832.50;5065462;28;20020;-72
2023/07/05 03:26:16;;;;;;;15.70;10.30;;;;;;;19.83;80.05;93828.19;5065291;28;20017;-72
2023/07/05 03:28:41;;;;;;;16.67;10.80;;;;;;;19.78;80.47;93827.75;5065245;28;20021;-72
2023/07/05 03:31:08;;;;;;;16.67;10.77;;;;;;;19.80;81.45;93836.28;5065299;28;20025;-73
2023/07/05 03:33:37;;;;;;;19.80;10.85;;;;;;;19.79;81.71;93834.72;5065048;28;20319;-72
2023/07/05 03:36:06;;;;;;;20.50;10.00;;;;;;;19.76;81.30;93833.56;5063863;28;20027;-72
2023/07/05 03:38:33;;;;;;;18.88;11.98;;;;;;;19.75;82.07;93837.41;5065280;28;20025;-72
2023/07/05 03:41:00;;;;;;;19.48;11.07;;;;;;;19.80;82.42;93830.88;5065084;28;20107;-72
2023/07/05 03:43:26;;;;;;;20.38;12.13;;;;;;;19.91;82.48;93826.34;5065218;28;20021;-72
2023/07/05 03:45:57;;;;;;;15.95;11.13;;;;;;;19.87;83.10;93814.72;5064982;28;20222;-74
2023/07/05 03:48:23;;;;;;;16.90;12.13;;;;;;;19.84;83.46;93818.94;5065097;28;20025;-73
2023/07/05 03:50:48;;;;;;;18.13;11.60;;;;;;;19.88;83.77;93837.91;5064727;28;20035;-73
2023/07/05 03:53:14;;;;;;;18.58;12.07;;;;;;;19.92;84.59;93836.00;5063589;28;20052;-72
2023/07/05 03:55:39;;;;;;;18.17;11.77;;;;;;;19.84;84.91;93846.00;5064612;28;20021;-72
2023/07/05 03:58:05;;;;;;;18.60;12.32;;;;;;;19.81;85.57;93852.13;5064712;28;20309;-71
2023/07/05 04:00:30;;;;;;;17.30;11.50;;;;;;;19.76;86.81;93840.88;5064661;28;20277;-73
2023/07/05 04:02:56;;;;;;;22.27;12.25;;;;;;;19.74;87.26;93854.78;5064393;28;20207;-72
2023/07/05 04:05:22;;;;;;;21.58;13.30;;;;;;;19.69;88.32;93857.00;5064591;28;20239;-73
2023/07/05 04:07:48;;;;;;;18.30;11.65;;;;;;;19.69;89.06;93857.78;5064401;28;20223;-72
2023/07/05 04:10:13;;;;;;;16.75;11.90;;;;;;;19.63;89.42;93854.63;5064449;28;20033;-72
2023/07/05 04:12:38;;;;;;;17.60;11.98;;;;;;;19.65;89.47;93854.25;5063120;28;20025;-72
2023/07/05 04:15:04;;;;;;;21.83;14.68;;;;;;;19.74;89.22;93870.22;5064287;28;20020;-73
2023/07/05 04:17:30;;;;;;;26.98;13.65;;;;;;;19.76;88.81;93866.00;5064227;28;20052;-73
2023/07/05 04:19:56;;;;;;;24.45;13.82;;;;;;;19.73;89.05;93874.06;5062778;28;20104;-73
2023/07/05 04:22:21;;;;;;;20.00;13.82;;;;;;;19.69;88.65;93875.94;5063008;28;20208;-73
2023/07/05 04:24:47;;;;;;;23.20;14.02;;;;;;;19.66;88.59;93869.31;5064201;28;20092;-73
2023/07/05 04:27:13;;;;;;;22.83;14.32;;;;;;;19.64;88.90;93877.81;5062538;28;20091;-73
2023/07/05 04:29:38;;;;;;;25.95;14.75;;;;;;;19.66;88.84;93874.72;5063702;28;20020;-72
2023/07/05 04:32:04;;;;;;;20.85;13.73;;;;;;;19.69;88.89;93868.59;5063824;28;20278;-72
2023/07/05 04:34:30;;;;;;;24.08;14.27;;;;;;;19.71;89.10;93874.44;5064056;28;20103;-72
2023/07/05 04:36:55;;;;;;;29.33;14.77;;;;;;;19.75;88.82;93877.97;5063836;28;20032;-72
2023/07/05 04:39:20;;;;;;;25.02;14.70;;;;;;;19.81;87.98;93883.81;5063984;28;20067;-72
2023/07/05 04:41:46;;;;;;;31.02;15.27;;;;;;;19.89;87.20;93881.97;5063684;28;20017;-72
2023/07/05 04:44:11;;;;;;;20.33;13.43;;;;;;;20.00;87.18;93877.44;5063069;28;20028;-72
2023/07/05 04:46:37;;;;;;;25.67;14.65;;;;;;;20.12;85.92;93885.25;5062324;28;20047;-72
2023/07/05 04:49:02;;;;;;;26.50;13.38;;;;;;;20.15;85.01;93884.53;5063735;28;20124;-72
2023/07/05 04:51:28;;;;;;;19.77;14.00;;;;;;;20.22;84.20;93887.28;5063508;28;20063;-73
2023/07/05 04:53:53;;;;;;;21.30;14.05;;;;;;;20.34;83.81;93886.22;5063596;28;20361;-72
2023/07/05 04:56:19;;;;;;;23.65;14.82;;;;;;;20.44;82.98;93890.97;5063399;28;20092;-73
2023/07/05 04:58:44;;;;;;;18.98;12.27;;;;;;;20.50;81.87;93890.63;5063579;28;20070;-73
2023/07/05 05:01:13;;;;;;;23.40;13.23;;;;;;;20.62;81.40;93891.13;5063431;28;20029;-72
2023/07/05 05:03:38;;;;;;;25.40;13.88;;;;;;;20.65;80.85;93897.72;5063330;28;20191;-72
2023/07/05 05:06:04;;;;;;;19.88;13.32;;;;;;;20.72;80.93;93900.50;5063223;28;20035;-72
2023/07/05 05:08:30;;;;;;;23.15;14.02;;;;;;;20.78;80.33;93890.84;5063291;28;20021;-72
2023/07/05 05:10:59;;;;;;;19.77;12.95;;;;;;;20.90;80.15;93894.41;5063320;28;20017;-73
2023/07/05 05:13:25;;;;;;;20.67;12.98;;;;;;;20.95;79.19;93891.34;5063291;28;20048;-73
2023/07/05 05:15:51;;;;;;;24.15;13.55;;;;;;;21.04;79.30;93887.16;5063149;28;20025;-73
2023/07/05 05:18:17;;;;;;;26.98;14.95;;;;;;;21.08;79.05;93895.28;5063141;28;20020;-73
2023/07/05 05:20:43;;;;;;;21.52;13.50;;;;;;;21.10;78.68;93887.53;5062883;28;20025;-73
2023/07/05 05:23:09;;;;;;;23.65;12.43;;;;;;;21.12;78.37;93906.91;5061896;28;20021;-73
2023/07/05 05:25:35;;;;;;;22.20;12.88;;;;;;;21.22;78.18;93900.00;5062938;28;20028;-73
2023/07/05 05:28:01;;;;;;;22.30;12.95;;;;;;;21.32;78.09;93899.28;5062904;28;20021;-73
2023/07/05 05:30:26;;;;;;;20.98;13.38;;;;;;;21.42;77.66;93904.00;5061652;28;20029;-73
2023/07/05 05:32:52;;;;;;;27.15;13.98;;;;;;;21.51;76.91;93900.16;5062733;28;20029;-72
2023/07/05 05:35:18;;;;;;;21.50;13.07;;;;;;;21.59;76.42;93901.75;5062569;28;20071;-73
2023/07/05 05:37:43;;;;;;;20.02;13.15;;;;;;;21.56;76.09;93902.50;5062736;28;20049;-72
2023/07/05 05:40:10;;;;;;;20.15;12.68;;;;;;;21.64;76.21;93904.09;5061283;28;20028;-73
2023/07/05 05:42:35;;;;;;;23.02;12.77;;;;;;;21.68;76.52;93910.31;5094623;28;20028;-72
2023/07/05 05:45:01;;;;;;;23.92;13.32;;;;;;;21.72;75.08;93907.63;5061307;28;20096;-72
2023/07/05 05:47:27;;;;;;;24.10;12.93;;;;;;;21.76;75.54;93913.81;5062741;28;20104;-72
2023/07/05 05:49:52;;;;;;;19.05;13.05;;;;;;;21.87;75.95;93916.56;5062897;28;20092;-73
2023/07/05 05:52:17;;;;;;;28.23;13.48;;;;;;;21.98;76.66;93911.94;5062604;28;20258;-74
2023/07/05 05:54:43;;;;;;;24.15;13.05;;;;;;;22.03;75.95;93912.34;5062795;28;20310;-74
2023/07/05 05:57:08;;;;;;;24.05;14.07;;;;;;;22.12;75.64;93909.25;5062594;28;20280;-74
2023/07/05 05:59:34;;;;;;;21.10;13.27;;;;;;;22.21;74.26;93912.38;5062421;28;20025;-73
2023/07/05 06:02:00;;;;;;;27.15;13.52;;;;;;;22.31;74.15;93912.78;5062576;28;20032;-74
2023/07/05 06:04:26;;;;;;;21.65;13.85;;;;;;;22.40;74.35;93916.69;5095090;28;20033;-73
2023/07/05 06:06:51;;;;;;;23.00;12.75;;;;;;;22.49;73.06;93902.75;5061464;28;20037;-73
2023/07/05 06:09:17;;;;;;;21.98;12.55;;;;;;;22.63;73.36;93901.94;5062496;28;20104;-73
2023/07/05 06:11:42;;;;;;;19.42;12.85;;;;;;;22.78;73.06;93891.84;5062349;28;20025;-73
2023/07/05 06:14:08;;;;;;;27.13;13.02;;;;;;;22.92;72.43;93894.56;5062213;28;20021;-73
2023/07/05 06:16:34;;;;;;;27.15;12.75;;;;;;;23.02;71.89;93891.06;5062416;28;20028;-74
2023/07/05 06:18:59;;;;;;;18.25;11.60;;;;;;;23.12;71.60;93889.50;5062332;28;20099;-73
2023/07/05 06:21:25;;;;;;;21.58;12.57;;;;;;;23.25;71.62;93892.56;5061582;28;20253;-73
2023/07/05 06:23:51;;;;;;;22.80;12.93;;;;;;;23.23;70.75;93889.47;5061168;28;20028;-72
2023/07/05 06:26:18;;;;;;;20.70;11.43;;;;;;;23.36;70.59;93889.81;5061188;28;20135;-73
2023/07/05 06:28:43;;;;;;;26.67;13.93;;;;;;;23.51;71.45;93879.63;5062022;28;20175;-74
2023/07/05 06:31:10;;;;;;;23.63;12.30;;;;;;;23.60;70.55;93882.72;5062296;28;20020;-74
2023/07/05 06:33:37;;;;;;;15.57;10.85;;;;;;;23.60;69.78;93882.72;5061163;28;20017;-74
2023/07/05 06:36:02;;;;;;;22.80;11.88;;;;;;;23.72;68.73;93886.94;5060504;28;20064;-74
2023/07/05 06:38:29;;;;;;;23.25;11.25;;;;;;;23.74;69.06;93885.38;5060593;28;20071;-72
2023/07/05 06:40:55;;;;;;;18.55;11.70;;;;;;;23.88;67.35;93886.50;5060748;28;20017;-71
2023/07/05 06:43:22;;;;;;;26.77;12.00;;;;;;;23.97;67.36;93882.16;5060463;28;20063;-74
2023/07/05 06:45:51;;;;;;;21.10;10.88;;;;;;;24.02;66.76;93884.47;5060870;28;20063;-76
2023/07/05 06:48:17;;;;;;;19.00;10.57;;;;;;;24.09;66.01;93883.66;5061181;28;20025;-73
2023/07/05 06:50:43;;;;;;;21.63;11.48;;;;;;;24.15;66.21;93886.72;5060283;28;20066;-73
2023/07/05 06:53:10;;;;;;;21.65;11.07;;;;;;;24.21;65.24;93885.91;5062579;28;20091;-74
2023/07/05 06:55:39;;;;;;;16.10;9.95;;;;;;;24.13;65.80;93878.97;5064214;28;20317;-74
2023/07/05 06:58:04;;;;;;;21.58;10.63;;;;;;;24.26;65.56;93878.47;5063991;28;20025;-74
2023/07/05 07:00:30;;;;;;;24.48;9.75;;;;;;;24.43;66.03;93886.53;5064125;28;20361;-74
2023/07/05 07:02:55;;;;;;;17.95;9.82;;;;;;;24.60;64.80;93881.38;5064379;28;20029;-74
2023/07/05 07:05:21;;;;;;;15.68;10.00;;;;;;;24.64;64.18;93887.56;5066092;28;20027;-74
2023/07/05 07:07:46;;;;;;;20.88;9.65;;;;;;;24.62;63.30;93879.78;5065703;28;20361;-74
2023/07/05 07:10:12;;;;;;;21.13;10.55;;;;;;;24.58;63.21;93887.22;5065383;28;20219;-74
2023/07/05 07:12:37;;;;;;;19.75;10.32;;;;;;;24.76;62.72;93876.16;5064022;28;20029;-74
2023/07/05 07:15:03;;;;;;;22.13;10.85;;;;;;;24.85;62.83;93870.25;5065424;28;20029;-73
2023/07/05 07:17:28;;;;;;;19.75;10.45;;;;;;;24.98;62.60;93876.75;5065444;28;20048;-74
2023/07/05 07:19:54;;;;;;;20.58;9.95;;;;;;;25.12;62.96;93875.06;5065758;28;20025;-74
2023/07/05 07:22:19;;;;;;;15.20;10.15;;;;;;;25.21;62.50;93878.88;5065555;28;20071;-74
2023/07/05 07:24:44;;;;;;;17.75;10.00;;;;;;;25.32;61.94;93870.59;5065361;28;20266;-74
2023/07/05 07:27:10;;;;;;;20.65;9.65;;;;;;;25.44;61.67;93869.25;5065330;28;20311;-74
2023/07/05 07:29:35;;;;;;;19.05;10.15;;;;;;;25.55;61.38;93869.16;5065298;28;20059;-74
2023/07/05 07:32:02;;;;;;;17.13;10.05;;;;;;;25.65;60.92;93864.75;5065198;28;20040;-74
2023/07/05 07:34:28;;;;;;;21.15;8.73;;;;;;;25.67;61.20;93865.88;5065273;28;20032;-74
2023/07/05 07:36:53;;;;;;;14.63;8.20;;;;;;;25.85;60.58;93867.59;5065464;28;20023;-74
2023/07/05 07:39:19;;;;;;;19.58;8.88;;;;;;;26.00;59.73;93858.06;5065278;28;20017;-74
2023/07/05 07:41:44;;;;;;;12.73;8.48;;;;;;;26.07;58.63;93860.66;5065063;28;20092;-74
2023/07/05 07:44:11;;;;;;;20.10;9.20;;;;;;;26.14;59.04;93855.13;5065122;28;20202;-74
2023/07/05 07:46:38;;;;;;;22.33;10.57;;;;;;;26.25;59.11;93854.94;5065127;28;20051;-74
2023/07/05 07:49:05;;;;;;;23.92;9.77;;;;;;;26.28;58.05;93859.59;5065196;28;20227;-74
2023/07/05 07:51:33;;;;;;;20.40;8.75;;;;;;;26.27;58.20;93865.47;5064902;28;20270;-74
2023/07/05 07:53:59;;;;;;;20.65;9.38;;;;;;;26.38;57.99;93857.91;5063459;28;20273;-74
2023/07/05 07:56:26;;;;;;;16.23;8.90;;;;;;;26.52;57.10;93863.13;5065023;28;20075;-74
2023/07/05 07:58:54;;;;;;;17.27;9.18;;;;;;;26.64;55.96;93859.03;5064866;28;20310;-74
2023/07/05 08:01:24;;;;;;;15.07;9.00;;;;;;;26.77;55.50;93853.78;5064903;28;20056;-74
2023/07/05 08:03:51;;;;;;;14.98;9.10;;;;;;;26.85;54.80;93860.66;5063874;28;20021;-74
2023/07/05 08:06:16;;;;;;;11.50;8.65;;;;;;;26.96;54.96;93857.72;5064909;28;20208;-74
2023/07/05 08:08:42;;;;;;;26.10;9.35;;;;;;;27.02;53.82;93859.56;5064675;28;20025;-74
2023/07/05 08:11:09;;;;;;;13.35;8.93;;;;;;;27.00;54.03;93856.47;5064713;28;20215;-75
2023/07/05 08:13:35;;;;;;;15.27;9.40;;;;;;;26.99;53.61;93860.41;5064437;28;20031;-74
2023/07/05 08:16:01;;;;;;;13.00;7.88;;;;;;;27.08;54.61;93859.09;5064541;28;20079;-74
2023/07/05 08:18:27;;;;;;;24.42;9.15;;;;;;;27.21;54.03;93862.72;5064476;28;20037;-74
2023/07/05 08:20:53;;;;;;;13.75;8.40;;;;;;;27.28;54.90;93862.63;5064571;28;20103;-74
2023/07/05 08:23:18;;;;;;;14.48;8.35;;;;;;;27.38;53.92;93863.63;5064196;28;20013;-74
2023/07/05 08:25:45;;;;;;;15.02;8.57;;;;;;;27.33;52.98;93861.38;5064318;28;20024;-74
2023/07/05 08:28:13;;;;;;;13.25;8.02;;;;;;;27.48;53.87;93864.59;5064399;28;20017;-74
2023/07/05 08:30:40;;;;;;;17.40;8.98;;;;;;;27.54;53.33;93865.63;5063036;28;20314;-74
2023/07/05 08:33:06;;;;;;;16.75;7.78;;;;;;;27.53;51.61;93858.63;5064100;28;20035;-75
2023/07/05 08:35:32;;;;;;;12.70;7.93;;;;;;;27.44;50.86;93858.41;5064094;28;20203;-74
2023/07/05 08:37:58;;;;;;;12.70;6.70;;;;;;;27.48;51.50;93864.59;5064020;28;20047;-74
2023/07/05 08:40:36;;;;;;;15.48;6.85;;;;;;;27.63;50.62;93854.91;5064302;28;20314;-74
2023/07/05 08:43:21;;;;;;;8.68;6.47;;;;;;;27.69;48.50;93852.44;5063961;28;20017;-74
2023/07/05 08:45:51;;;;;;;10.52;7.60;;;;;;;27.63;49.37;93854.91;5063960;28;20029;-75
2023/07/05 08:48:17;;;;;;;11.23;7.47;;;;;;;27.72;50.34;93857.88;5063897;28;20052;-75
2023/07/05 08:50:49;;;;;;;11.02;7.43;;;;;;;27.92;50.63;93855.09;5063557;28;20017;-75
2023/07/05 08:53:19;;;;;;;11.10;7.18;;;;;;;28.10;49.76;93848.47;5063938;28;20040;-75
2023/07/05 08:56:24;;;;;;;12.65;7.13;;;;;;;28.21;49.77;93849.78;5063798;28;20107;-75
2023/07/05 08:59:20;;;;;;;12.82;7.57;;;;;;;28.32;49.09;93854.22;5052784;28;20118;-75
2023/07/05 09:01:48;;;;;;;11.68;7.65;;;;;;;28.45;48.66;93852.34;5062489;28;20063;-74
2023/07/05 09:04:24;;;;;;;12.82;6.47;;;;;;;28.52;48.08;93846.72;5062488;28;20052;-75
2023/07/05 09:07:31;;;;;;;20.52;7.05;;;;;;;28.60;47.50;93841.84;5062662;28;20053;-75
2023/07/05 09:09:59;;;;;;;9.55;7.40;;;;;;;28.64;46.96;93841.75;5025145;28;20029;-74
2023/07/05 09:12:34;;;;;;;14.20;8.10;;;;;;;28.63;47.42;93838.22;5025017;28;20041;-75
2023/07/05 09:15:13;;;;;;;13.38;7.63;;;;;;;28.80;48.06;93828.78;5053869;28;20049;-75
2023/07/05 09:17:45;;;;;;;9.90;7.32;;;;;;;28.95;48.77;93823.69;5063267;28;20037;-74
2023/07/05 09:20:38;;;;;;;19.55;7.88;;;;;;;29.04;47.72;93816.81;5063317;28;20336;-74
2023/07/05 09:23:10;;;;;;;16.67;7.63;;;;;;;29.12;48.20;93821.72;5063374;28;20035;-75
2023/07/05 09:25:41;;;;;;;10.40;7.40;;;;;;;29.26;46.92;93817.03;5063131;28;20028;-74
2023/07/05 09:28:18;;;;;;;13.38;7.78;;;;;;;29.36;47.54;93819.47;5063325;28;20028;-74
2023/07/05 09:30:44;;;;;;;11.43;7.07;;;;;;;29.46;46.04;93811.41;5063169;28;20028;-75
2023/07/05 09:33:32;;;;;;;12.68;7.03;;;;;;;29.57;45.66;93812.63;5063026;28;20029;-75
2023/07/05 09:36:09;;;;;;;13.15;8.30;;;;;;;29.70;45.19;93815.41;5063196;28;20013;-75
2023/07/05 09:38:41;;;;;;;13.85;8.32;;;;;;;29.80;45.71;93816.31;5062965;28;20025;-75
2023/07/05 09:41:36;;;;;;;19.55;9.00;;;;;;;29.92;44.31;93814.78;5063132;28;20028;-75
2023/07/05 09:44:01;;;;;;;17.20;9.27;;;;;;;29.96;44.10;93802.47;5062711;28;20055;-74
2023/07/05 09:46:30;;;;;;;18.50;8.52;;;;;;;30.07;43.69;93801.38;5061941;28;20025;-75
2023/07/05 09:48:56;;;;;;;16.77;10.23;;;;;;;30.18;43.65;93812.78;5062832;28;20211;-76
2023/07/05 09:51:22;;;;;;;19.67;11.50;;;;;;;30.31;43.98;93818.34;5062702;28;20044;-76
2023/07/05 09:53:49;;;;;;;18.67;9.88;;;;;;;30.44;43.95;93813.56;5062354;28;20163;-75
2023/07/05 09:56:26;;;;;;;14.05;9.10;;;;;;;30.57;43.57;93814.34;5062393;28;20130;-76
2023/07/05 09:59:07;;;;;;;12.57;7.25;;;;;;;30.63;42.96;93805.50;5062676;28;20314;-75
2023/07/05 10:01:35;;;;;;;10.20;6.88;;;;;;;30.65;42.84;93808.59;5062541;28;20020;-74
2023/07/05 10:04:04;;;;;;;9.65;6.85;;;;;;;30.71;42.62;93807.56;5062573;28;20229;-73
2023/07/05 10:06:30;;;;;;;15.55;7.57;;;;;;;30.82;43.83;93801.72;5062485;28;20025;-74
2023/07/05 10:09:04;;;;;;;11.80;6.93;;;;;;;30.90;42.67;93803.03;5062635;28;20047;-73
2023/07/05 10:11:33;;;;;;;15.68;7.90;;;;;;;30.89;43.15;93807.00;5062670;28;20227;-73
2023/07/05 10:14:10;;;;;;;12.25;7.18;;;;;;;30.93;42.45;93807.66;5062450;28;20226;-74
2023/07/05 10:16:56;;;;;;;18.58;8.75;;;;;;;31.00;42.17;93801.16;5062400;28;20025;-74
2023/07/05 10:19:30;;;;;;;14.57;8.25;;;;;;;31.00;44.04;93798.41;5062689;28;20013;-73
2023/07/05 10:22:04;;;;;;;18.05;7.18;;;;;;;31.01;42.30;93801.91;5062406;28;20013;-73
2023/07/05 10:24:34;;;;;;;14.65;9.15;;;;;;;31.13;42.80;93798.34;5062491;28;20115;-73
2023/07/05 10:27:15;;;;;;;14.35;6.95;;;;;;;31.29;42.89;93798.16;5062863;28;20031;-74
2023/07/05 10:29:41;;;;;;;10.00;7.57;;;;;;;31.50;42.59;93804.13;5066435;28;20021;-74
2023/07/05 10:32:18;;;;;;;17.67;6.68;;;;;;;31.65;42.00;93798.84;5066565;28;20036;-75
2023/07/05 10:34:44;;;;;;;11.38;6.47;;;;;;;31.81;40.40;93800.63;5066291;28;20048;-75
2023/07/05 10:37:32;;;;;;;9.55;6.20;;;;;;;31.89;39.69;93788.09;5066418;28;20046;-75
2023/07/05 10:39:58;;;;;;;13.77;6.72;;;;;;;31.85;39.34;93779.97;5066551;28;20021;-75
2023/07/05 10:42:25;;;;;;;14.57;7.65;;;;;;;31.77;40.38;93779.50;5066570;28;20020;-74
2023/07/05 10:44:51;;;;;;;10.85;6.80;;;;;;;31.91;40.80;93782.91;5066295;28;20361;-75
2023/07/05 10:47:17;;;;;;;17.35;6.68;;;;;;;31.98;40.65;93788.16;5066159;28;20020;-75
2023/07/05 10:49:44;;;;;;;10.65;7.10;;;;;;;31.96;41.06;93790.59;5066117;28;20314;-75
2023/07/05 10:52:12;;;;;;;12.65;7.63;;;;;;;31.86;41.10;93781.50;5065897;28;20052;-75
2023/07/05 10:54:49;;;;;;;16.58;6.20;;;;;;;31.71;40.47;93786.81;5064795;28;20033;-74
2023/07/05 10:57:22;;;;;;;21.02;6.45;;;;;;;31.54;41.76;93793.75;5066181;28;20021;-74
2023/07/05 11:00:37;;;;;;;10.77;6.80;;;;;;;31.31;42.64;93795.72;5065975;28;20035;-74
2023/07/05 11:03:30;;;;;;;10.63;6.75;;;;;;;31.08;43.02;93801.66;5063949;28;20230;-75
2023/07/05 11:06:00;;;;;;;17.60;6.40;;;;;;;30.77;42.38;93799.53;5066048;28;20318;-75
2023/07/05 11:08:38;;;;;;;10.02;6.32;;;;;;;30.66;43.68;93804.63;5065909;28;20051;-75
2023/07/05 11:11:30;;;;;;;15.77;7.07;;;;;;;30.55;44.78;93819.50;5065702;28;20386;-75
2023/07/05 11:14:00;;;;;;;14.27;7.55;;;;;;;30.29;45.55;93828.97;5065488;28;20036;-74
2023/07/05 11:16:27;;;;;;;12.93;7.63;;;;;;;29.97;45.99;93812.25;5065577;28;20331;-73
2023/07/05 11:19:10;;;;;;;14.20;7.25;;;;;;;29.88;45.84;93808.63;5065932;28;20087;-73
2023/07/05 11:21:47;;;;;;;24.55;7.60;;;;;;;29.66;45.92;93802.97;5065654;28;20267;-74
2023/07/05 11:24:33;;;;;;;12.68;7.10;;;;;;;29.28;47.86;93807.16;5065315;28;20021;-75
2023/07/05 11:26:59;;;;;;;18.88;6.07;;;;;;;29.26;45.14;93815.06;5064221;28;20250;-73
2023/07/05 11:29:28;;;;;;;8.85;5.10;;;;;;;29.00;43.70;93809.47;5064447;28;20242;-73
2023/07/05 11:31:53;;;;;;;7.93;5.05;;;;;;;28.91;43.85;93789.34;5065616;28;20079;-73